createdAt,value
2018-01-29T00:01:01.914Z,7.95
2018-01-29T00:02:11.773Z,7.97
2018-01-29T00:03:21.940Z,7.97
2018-01-29T00:04:32.069Z,7.98
2018-01-29T00:05:42.237Z,8.02
2018-01-29T00:06:52.454Z,8.03
2018-01-29T00:08:02.701Z,8.05
2018-01-29T00:09:12.874Z,8.07
2018-01-29T00:10:23.011Z,8.07
2018-01-29T00:11:33.210Z,8.06
2018-01-29T00:12:43.424Z,8.12
2018-01-29T00:13:53.578Z,8.13
2018-01-29T00:15:04.863Z,8.13
2018-01-29T00:16:15.027Z,8.17
2018-01-29T00:17:25.208Z,8.23
2018-01-29T00:18:35.486Z,8.2
2018-01-29T00:19:45.683Z,8.21
2018-01-29T00:20:55.938Z,8.21
2018-01-29T00:22:05.847Z,8.13
2018-01-29T00:23:15.976Z,8.13
2018-01-29T00:24:26.132Z,8.2
2018-01-29T00:25:36.276Z,8.16
2018-01-29T00:26:46.512Z,8.16
2018-01-29T00:27:56.734Z,8.13
2018-01-29T00:29:06.934Z,8.16
2018-01-29T00:30:17.140Z,8.21
2018-01-29T00:31:27.358Z,8.25
2018-01-29T00:32:37.164Z,8.27
2018-01-29T00:33:47.376Z,8.24
2018-01-29T00:34:57.232Z,8.23
2018-01-29T00:36:07.382Z,8.3
2018-01-29T00:37:17.547Z,8.17
2018-01-29T00:38:27.731Z,8.32
2018-01-29T00:39:37.866Z,8.27
2018-01-29T00:40:47.998Z,8.27
2018-01-29T00:41:58.118Z,8.27
2018-01-29T00:43:08.240Z,8.28
2018-01-29T00:44:18.394Z,8.28
2018-01-29T00:45:28.676Z,8.3
2018-01-29T00:46:38.880Z,8.31
2018-01-29T00:47:49.044Z,8.27
2018-01-29T00:48:59.300Z,8.3
2018-01-29T00:50:09.484Z,8.32
2018-01-29T00:51:19.455Z,8.28
2018-01-29T00:52:29.664Z,8.25
2018-01-29T00:53:39.790Z,8.34
2018-01-29T00:54:49.929Z,8.35
2018-01-29T00:56:00.060Z,8.34
2018-01-29T00:57:10.178Z,8.31
2018-01-29T00:58:20.297Z,8.31
2018-01-29T00:59:30.340Z,8.28
2018-01-29T01:00:40.595Z,8.27
2018-01-29T01:01:50.855Z,8.28
2018-01-29T01:03:00.726Z,8.28
2018-01-29T01:04:10.934Z,8.3
2018-01-29T01:05:21.043Z,8.27
2018-01-29T01:06:31.181Z,8.3
2018-01-29T01:07:41.373Z,8.31
2018-01-29T01:08:51.497Z,8.32
2018-01-29T01:10:01.457Z,8.34
2018-01-29T01:11:11.576Z,8.3
2018-01-29T01:12:21.721Z,8.28
2018-01-29T01:13:31.879Z,8.28
2018-01-29T01:14:42.048Z,8.24
2018-01-29T01:15:52.159Z,8.23
2018-01-29T01:17:02.290Z,8.31
2018-01-29T01:18:12.420Z,8.25
2018-01-29T01:19:22.591Z,8.31
2018-01-29T01:20:32.801Z,8.23
2018-01-29T01:21:42.985Z,8.27
2018-01-29T01:22:53.137Z,8.28
2018-01-29T01:24:03.271Z,8.31
2018-01-29T01:25:13.255Z,8.25
2018-01-29T01:26:23.502Z,8.13
2018-01-29T01:27:33.705Z,8.23
2018-01-29T01:28:44.098Z,8.2
2018-01-29T01:29:54.306Z,8.31
2018-01-29T01:31:04.422Z,8.25
2018-01-29T01:32:14.677Z,8.24
2018-01-29T01:33:24.857Z,8.27
2018-01-29T01:34:35.070Z,8.28
2018-01-29T01:35:45.287Z,8.23
2018-01-29T01:36:55.517Z,8.27
2018-01-29T01:38:05.787Z,8.15
2018-01-29T01:39:15.954Z,8.28
2018-01-29T01:40:26.202Z,8.27
2018-01-29T01:41:36.356Z,8.27
2018-01-29T01:42:46.595Z,8.25
2018-01-29T01:43:56.745Z,8.23
2018-01-29T01:45:06.889Z,8.28
2018-01-29T01:46:17.035Z,8.2
2018-01-29T01:47:27.134Z,8.16
2018-01-29T01:48:37.326Z,8.17
2018-01-29T01:49:47.447Z,8.2
2018-01-29T01:50:57.599Z,8.21
2018-01-29T01:52:07.753Z,8.16
2018-01-29T01:53:17.896Z,8.15
2018-01-29T01:54:28.042Z,8.21
2018-01-29T01:55:38.176Z,8.2
2018-01-29T01:56:48.315Z,8.21
2018-01-29T01:57:58.544Z,8.13
2018-01-29T01:59:08.702Z,8.15
2018-01-29T02:00:18.922Z,8.09
2018-01-29T02:01:29.199Z,8.13
2018-01-29T02:02:39.353Z,8.15
2018-01-29T02:03:49.680Z,8.09
2018-01-29T02:04:59.818Z,8.12
2018-01-29T02:06:10.009Z,8.15
2018-01-29T02:07:20.334Z,8.13
2018-01-29T02:08:30.512Z,8.12
2018-01-29T02:09:40.394Z,8.15
2018-01-29T02:10:50.302Z,8.21
2018-01-29T02:12:00.661Z,8.21
2018-01-29T02:13:10.807Z,8.21
2018-01-29T02:14:21.022Z,8.13
2018-01-29T02:15:31.301Z,8.17
2018-01-29T02:16:41.172Z,8.15
2018-01-29T02:17:51.287Z,8.15
2018-01-29T02:19:01.476Z,8.2
2018-01-29T02:20:11.661Z,8.23
2018-01-29T02:21:21.777Z,8.16
2018-01-29T02:22:31.896Z,8.17
2018-01-29T02:23:41.817Z,8.1
2018-01-29T02:24:51.956Z,8.13
2018-01-29T02:26:02.074Z,8.16
2018-01-29T02:27:12.219Z,8.13
2018-01-29T02:28:22.424Z,8.27
2018-01-29T02:29:32.608Z,8.23
2018-01-29T02:30:42.724Z,8.24
2018-01-29T02:31:52.936Z,8.3
2018-01-29T02:33:03.227Z,8.28
2018-01-29T02:34:13.339Z,8.27
2018-01-29T02:35:23.473Z,8.28
2018-01-29T02:36:33.900Z,8.28
2018-01-29T02:37:44.135Z,8.28
2018-01-29T02:38:54.435Z,8.31
2018-01-29T02:40:04.619Z,8.3
2018-01-29T02:41:14.765Z,8.28
2018-01-29T02:42:24.993Z,8.3
2018-01-29T02:43:35.135Z,8.27
2018-01-29T02:44:45.272Z,8.31
2018-01-29T02:45:55.419Z,8.32
2018-01-29T02:47:05.541Z,8.31
2018-01-29T02:48:15.428Z,8.3
2018-01-29T02:49:25.560Z,8.37
2018-01-29T02:50:35.477Z,8.34
2018-01-29T02:51:45.832Z,8.32
2018-01-29T02:52:56.021Z,8.46
2018-01-29T02:54:06.283Z,8.42
2018-01-29T02:55:16.602Z,8.43
2018-01-29T02:56:26.738Z,8.46
2018-01-29T02:57:36.943Z,8.42
2018-01-29T02:58:47.159Z,8.39
2018-01-29T02:59:57.324Z,8.43
2018-01-29T03:01:07.516Z,8.39
2018-01-29T03:02:17.788Z,8.4
2018-01-29T03:03:28.193Z,8.34
2018-01-29T03:04:38.319Z,8.42
2018-01-29T03:05:48.510Z,8.42
2018-01-29T03:06:58.757Z,8.45
2018-01-29T03:08:09.008Z,8.42
2018-01-29T03:09:19.197Z,8.4
2018-01-29T03:10:29.349Z,8.52
2018-01-29T03:11:39.537Z,8.46
2018-01-29T03:12:49.670Z,8.5
2018-01-29T03:13:59.831Z,8.52
2018-01-29T03:15:09.945Z,8.43
2018-01-29T03:16:20.077Z,8.48
2018-01-29T03:17:30.186Z,8.48
2018-01-29T03:18:40.300Z,8.45
2018-01-29T03:19:50.416Z,8.39
2018-01-29T03:21:00.548Z,8.49
2018-01-29T03:22:10.668Z,8.5
2018-01-29T03:23:20.799Z,8.5
2018-01-29T03:24:31.022Z,8.52
2018-01-29T03:25:41.280Z,8.48
2018-01-29T03:26:51.505Z,8.5
2018-01-29T03:28:01.661Z,8.58
2018-01-29T03:29:11.840Z,8.52
2018-01-29T03:30:22.145Z,8.49
2018-01-29T03:31:32.422Z,8.45
2018-01-29T03:32:42.660Z,8.48
2018-01-29T03:33:52.824Z,8.52
2018-01-29T03:35:03.011Z,8.49
2018-01-29T03:36:12.913Z,8.48
2018-01-29T03:37:23.028Z,8.45
2018-01-29T03:38:33.185Z,8.49
2018-01-29T03:39:43.092Z,8.55
2018-01-29T03:40:53.230Z,8.53
2018-01-29T03:42:03.350Z,8.53
2018-01-29T03:43:13.584Z,8.52
2018-01-29T03:44:23.835Z,8.55
2018-01-29T03:45:34.054Z,8.48
2018-01-29T03:46:44.344Z,8.48
2018-01-29T03:47:54.558Z,8.49
2018-01-29T03:49:04.463Z,8.45
2018-01-29T03:50:14.588Z,8.48
2018-01-29T03:51:24.754Z,8.52
2018-01-29T03:52:35.068Z,8.53
2018-01-29T03:53:44.917Z,8.48
2018-01-29T03:54:55.054Z,8.53
2018-01-29T03:56:05.197Z,8.48
2018-01-29T03:57:15.360Z,8.52
2018-01-29T03:58:25.498Z,8.42
2018-01-29T03:59:35.780Z,8.46
2018-01-29T04:00:45.982Z,8.5
2018-01-29T04:01:56.132Z,8.42
2018-01-29T04:03:06.254Z,8.5
2018-01-29T04:04:16.149Z,8.5
2018-01-29T04:05:26.336Z,8.5
2018-01-29T04:06:36.454Z,8.48
2018-01-29T04:07:46.585Z,8.46
2018-01-29T04:08:56.683Z,8.52
2018-01-29T04:10:06.821Z,8.57
2018-01-29T04:11:17.033Z,8.52
2018-01-29T04:12:27.252Z,8.52
2018-01-29T04:13:37.482Z,8.53
2018-01-29T04:14:47.653Z,8.53
2018-01-29T04:15:57.793Z,8.52
2018-01-29T04:17:07.940Z,8.53
2018-01-29T04:18:18.060Z,8.52
2018-01-29T04:19:28.183Z,8.52
2018-01-29T04:20:38.357Z,8.46
2018-01-29T04:21:48.524Z,8.57
2018-01-29T04:22:58.671Z,8.58
2018-01-29T04:24:08.852Z,8.53
2018-01-29T04:25:19.259Z,8.49
2018-01-29T04:26:29.485Z,8.58
2018-01-29T04:27:39.687Z,8.49
2018-01-29T04:28:49.449Z,8.53
2018-01-29T04:29:59.614Z,8.6
2018-01-29T04:31:09.740Z,8.57
2018-01-29T04:32:19.958Z,8.61
2018-01-29T04:33:30.248Z,8.53
2018-01-29T04:34:40.519Z,8.5
2018-01-29T04:35:50.722Z,8.55
2018-01-29T04:37:00.978Z,8.5
2018-01-29T04:38:11.152Z,8.5
2018-01-29T04:39:21.310Z,8.49
2018-01-29T04:40:31.483Z,8.53
2018-01-29T04:41:41.901Z,8.57
2018-01-29T04:42:52.083Z,8.52
2018-01-29T04:44:02.273Z,8.57
2018-01-29T04:45:12.470Z,8.55
2018-01-29T04:46:22.695Z,8.52
2018-01-29T04:47:32.944Z,8.55
2018-01-29T04:48:43.141Z,8.5
2018-01-29T04:49:52.914Z,8.5
2018-01-29T04:51:03.028Z,8.52
2018-01-29T04:52:13.208Z,8.52
2018-01-29T04:53:23.374Z,8.52
2018-01-29T04:54:33.689Z,8.5
2018-01-29T04:55:43.912Z,8.52
2018-01-29T04:56:54.150Z,8.55
2018-01-29T04:58:04.313Z,8.5
2018-01-29T04:59:14.476Z,8.57
2018-01-29T05:00:24.608Z,8.48
2018-01-29T05:01:34.726Z,8.5
2018-01-29T05:02:44.982Z,8.53
2018-01-29T05:03:54.831Z,8.48
2018-01-29T05:05:04.952Z,8.55
2018-01-29T05:06:15.060Z,8.49
2018-01-29T05:07:25.239Z,8.58
2018-01-29T05:08:35.395Z,8.5
2018-01-29T05:09:45.622Z,8.5
2018-01-29T05:10:55.758Z,8.52
2018-01-29T05:12:05.900Z,8.5
2018-01-29T05:13:15.836Z,8.5
2018-01-29T05:14:26.073Z,8.55
2018-01-29T05:15:36.288Z,8.58
2018-01-29T05:16:46.433Z,8.55
2018-01-29T05:17:56.755Z,8.64
2018-01-29T05:19:06.957Z,8.43
2018-01-29T05:20:17.103Z,8.63
2018-01-29T05:21:27.461Z,8.61
2018-01-29T05:22:37.594Z,8.57
2018-01-29T05:23:47.710Z,8.55
2018-01-29T05:24:57.834Z,8.53
2018-01-29T05:26:07.941Z,8.58
2018-01-29T05:27:17.839Z,8.61
2018-01-29T05:28:27.931Z,8.5
2018-01-29T05:29:38.040Z,8.6
2018-01-29T05:30:48.221Z,8.49
2018-01-29T05:31:58.479Z,8.53
2018-01-29T05:33:08.653Z,8.6
2018-01-29T05:34:18.835Z,8.55
2018-01-29T05:35:28.752Z,8.43
2018-01-29T05:36:38.863Z,8.57
2018-01-29T05:37:48.984Z,8.52
2018-01-29T05:38:59.102Z,8.53
2018-01-29T05:40:08.966Z,8.52
2018-01-29T05:41:19.135Z,8.5
2018-01-29T05:42:29.419Z,8.57
2018-01-29T05:43:39.573Z,8.55
2018-01-29T05:44:49.693Z,8.55
2018-01-29T05:45:59.815Z,8.58
2018-01-29T05:47:09.931Z,8.55
2018-01-29T05:48:19.784Z,8.5
2018-01-29T05:49:29.917Z,8.5
2018-01-29T05:50:40.047Z,8.5
2018-01-29T05:51:50.267Z,8.5
2018-01-29T05:53:00.422Z,8.49
2018-01-29T05:54:10.306Z,8.52
2018-01-29T05:55:20.426Z,8.53
2018-01-29T05:56:30.567Z,8.58
2018-01-29T05:57:40.720Z,8.55
2018-01-29T05:58:50.915Z,8.55
2018-01-29T06:00:01.066Z,8.49
2018-01-29T06:01:11.183Z,8.48
2018-01-29T06:02:21.360Z,8.52
2018-01-29T06:03:31.552Z,8.53
2018-01-29T06:04:41.421Z,8.48
2018-01-29T06:05:51.541Z,8.5
2018-01-29T06:07:01.641Z,8.49
2018-01-29T06:08:11.913Z,8.53
2018-01-29T06:09:22.068Z,8.53
2018-01-29T06:10:32.252Z,8.49
2018-01-29T06:11:42.494Z,8.45
2018-01-29T06:12:52.601Z,8.48
2018-01-29T06:14:02.482Z,8.45
2018-01-29T06:15:12.672Z,8.45
2018-01-29T06:16:22.827Z,8.5
2018-01-29T06:17:32.982Z,8.57
2018-01-29T06:18:43.144Z,8.48
2018-01-29T06:19:53.338Z,8.52
2018-01-29T06:21:03.440Z,8.4
2018-01-29T06:22:13.552Z,8.4
2018-01-29T06:23:23.808Z,8.45
2018-01-29T06:24:33.997Z,8.45
2018-01-29T06:25:44.126Z,8.45
2018-01-29T06:26:54.294Z,8.48
2018-01-29T06:28:04.492Z,8.45
2018-01-29T06:29:14.607Z,8.43
2018-01-29T06:30:24.729Z,8.5
2018-01-29T06:31:34.936Z,8.49
2018-01-29T06:32:45.108Z,8.49
2018-01-29T06:33:55.278Z,8.46
2018-01-29T06:35:05.582Z,8.48
2018-01-29T06:36:15.716Z,8.48
2018-01-29T06:37:25.578Z,8.43
2018-01-29T06:38:35.713Z,8.48
2018-01-29T06:39:45.937Z,8.45
2018-01-29T06:40:56.060Z,8.42
2018-01-29T06:42:06.356Z,8.37
2018-01-29T06:43:16.560Z,8.45
2018-01-29T06:44:26.717Z,8.42
2018-01-29T06:45:36.825Z,8.39
2018-01-29T06:46:46.765Z,8.35
2018-01-29T06:47:56.953Z,8.39
2018-01-29T06:49:07.094Z,8.45
2018-01-29T06:50:17.227Z,8.45
2018-01-29T06:51:27.335Z,8.45
2018-01-29T06:52:37.463Z,8.39
2018-01-29T06:53:47.610Z,8.37
2018-01-29T06:54:57.882Z,8.34
2018-01-29T06:56:08.177Z,8.4
2018-01-29T06:57:18.325Z,8.39
2018-01-29T06:58:28.490Z,8.37
2018-01-29T06:59:38.653Z,8.39
2018-01-29T07:00:48.779Z,8.42
2018-01-29T07:01:58.892Z,8.37
2018-01-29T07:03:09.030Z,8.42
2018-01-29T07:04:19.283Z,8.35
2018-01-29T07:05:29.450Z,8.37
2018-01-29T07:06:39.663Z,8.34
2018-01-29T07:07:49.527Z,8.39
2018-01-29T07:08:59.639Z,8.3
2018-01-29T07:10:09.787Z,8.31
2018-01-29T07:11:19.932Z,8.45
2018-01-29T07:12:29.898Z,8.35
2018-01-29T07:13:40.016Z,8.35
2018-01-29T07:14:50.129Z,8.37
2018-01-29T07:16:00.338Z,8.39
2018-01-29T07:17:10.497Z,8.43
2018-01-29T07:18:20.618Z,8.43
2018-01-29T07:19:30.732Z,8.42
2018-01-29T07:20:40.974Z,8.35
2018-01-29T07:21:51.083Z,8.4
2018-01-29T07:23:01.397Z,8.39
2018-01-29T07:24:11.504Z,8.4
2018-01-29T07:25:21.662Z,8.37
2018-01-29T07:26:31.829Z,8.39
2018-01-29T07:27:42.122Z,8.4
2018-01-29T07:28:51.990Z,8.39
2018-01-29T07:30:02.203Z,8.45
2018-01-29T07:31:12.381Z,8.48
2018-01-29T07:32:22.631Z,8.37
2018-01-29T07:33:32.796Z,8.35
2018-01-29T07:34:43.064Z,8.45
2018-01-29T07:35:53.200Z,8.43
2018-01-29T07:37:03.407Z,8.49
2018-01-29T07:38:13.610Z,8.42
2018-01-29T07:39:23.944Z,8.45
2018-01-29T07:40:34.109Z,8.37
2018-01-29T07:41:44.242Z,8.39
2018-01-29T07:42:54.446Z,8.48
2018-01-29T07:44:04.794Z,8.48
2018-01-29T07:45:14.968Z,8.42
2018-01-29T07:46:25.190Z,8.57
2018-01-29T07:47:35.408Z,8.52
2018-01-29T07:48:45.597Z,8.53
2018-01-29T07:49:55.929Z,8.55
2018-01-29T07:51:06.225Z,8.55
2018-01-29T07:52:16.366Z,8.5
2018-01-29T07:53:26.527Z,8.52
2018-01-29T07:54:36.798Z,8.5
2018-01-29T07:55:47.036Z,8.48
2018-01-29T07:56:57.210Z,8.55
2018-01-29T07:58:07.369Z,8.55
2018-01-29T07:59:17.672Z,8.52
2018-01-29T08:00:27.817Z,8.53
2018-01-29T08:01:38.058Z,8.53
2018-01-29T08:02:48.206Z,8.61
2018-01-29T08:03:57.804Z,8.57
2018-01-29T08:05:07.994Z,8.49
2018-01-29T08:06:18.148Z,8.57
2018-01-29T08:07:28.322Z,8.61
2018-01-29T08:08:38.578Z,8.49
2018-01-29T08:10:58.633Z,8.5
2018-01-29T08:12:08.528Z,8.53
2018-01-29T08:13:18.681Z,8.48
2018-01-29T08:14:28.798Z,8.52
2018-01-29T08:15:38.968Z,8.57
2018-01-29T08:16:49.117Z,8.55
2018-01-29T08:17:59.279Z,8.61
2018-01-29T08:19:09.571Z,8.58
2018-01-29T08:20:19.761Z,8.53
2018-01-29T08:21:29.940Z,8.55
2018-01-29T08:22:40.106Z,8.5
2018-01-29T08:23:50.289Z,8.64
2018-01-29T08:25:00.414Z,8.58
2018-01-29T08:26:10.541Z,8.57
2018-01-29T08:27:20.675Z,8.58
2018-01-29T08:28:30.608Z,8.63
2018-01-29T08:29:40.754Z,8.58
2018-01-29T08:30:50.881Z,8.58
2018-01-29T08:32:01.066Z,8.63
2018-01-29T08:33:11.267Z,8.66
2018-01-29T08:34:21.412Z,8.61
2018-01-29T08:35:31.612Z,8.66
2018-01-29T08:36:41.906Z,8.6
2018-01-29T08:37:52.040Z,8.6
2018-01-29T08:39:02.257Z,8.57
2018-01-29T08:40:12.147Z,8.66
2018-01-29T08:41:22.300Z,8.71
2018-01-29T08:42:32.657Z,8.71
2018-01-29T08:43:42.796Z,8.74
2018-01-29T08:44:53.066Z,8.74
2018-01-29T08:46:03.194Z,8.74
2018-01-29T08:47:13.335Z,8.7
2018-01-29T08:48:23.316Z,8.87
2018-01-29T08:49:33.446Z,8.75
2018-01-29T08:50:43.579Z,8.8
2018-01-29T08:51:53.827Z,8.75
2018-01-29T08:53:03.745Z,8.79
2018-01-29T08:54:14.118Z,8.77
2018-01-29T08:55:24.354Z,8.79
2018-01-29T08:56:34.624Z,8.89
2018-01-29T08:57:44.814Z,8.8
2018-01-29T08:58:55.323Z,8.89
2018-01-29T09:00:05.719Z,8.8
2018-01-29T09:01:15.910Z,8.77
2018-01-29T09:02:26.216Z,8.87
2018-01-29T09:03:36.442Z,8.82
2018-01-29T09:04:46.616Z,8.87
2018-01-29T09:05:56.893Z,8.89
2018-01-29T09:07:07.013Z,8.87
2018-01-29T09:08:16.915Z,8.92
2018-01-29T09:09:27.090Z,8.93
2018-01-29T09:10:37.346Z,8.98
2018-01-29T09:11:47.567Z,8.95
2018-01-29T09:12:57.727Z,8.92
2018-01-29T09:14:07.670Z,8.9
2018-01-29T09:15:17.855Z,8.98
2018-01-29T09:16:27.999Z,8.95
2018-01-29T09:17:38.178Z,8.95
2018-01-29T09:18:48.475Z,8.9
2018-01-29T09:19:58.113Z,8.89
2018-01-29T09:21:08.296Z,9.01
2018-01-29T09:22:18.470Z,8.93
2018-01-29T09:23:28.765Z,9
2018-01-29T09:24:39.130Z,9.05
2018-01-29T09:25:49.314Z,9.02
2018-01-29T09:26:59.188Z,9.04
2018-01-29T09:28:09.359Z,9.11
2018-01-29T09:29:19.548Z,9.01
2018-01-29T09:30:29.719Z,9.09
2018-01-29T09:31:39.901Z,9.17
2018-01-29T09:32:50.094Z,9.09
2018-01-29T09:34:00.248Z,9.04
2018-01-29T09:35:10.495Z,9.07
2018-01-29T09:36:20.655Z,9.11
2018-01-29T09:37:30.882Z,9.11
2018-01-29T09:38:41.011Z,9.15
2018-01-29T09:39:51.185Z,9.11
2018-01-29T09:41:01.347Z,9.09
2018-01-29T09:42:11.476Z,9.11
2018-01-29T09:43:21.681Z,9.08
2018-01-29T09:44:31.568Z,9.09
2018-01-29T09:45:42.023Z,9.15
2018-01-29T09:46:52.191Z,9.08
2018-01-29T09:48:02.361Z,9.05
2018-01-29T09:49:12.526Z,9
2018-01-29T09:50:22.688Z,9.12
2018-01-29T09:51:32.828Z,9.04
2018-01-29T09:52:42.961Z,9.12
2018-01-29T09:53:53.101Z,9
2018-01-29T09:55:03.260Z,9.15
2018-01-29T09:56:13.408Z,9.01
2018-01-29T09:57:23.580Z,9.05
2018-01-29T09:58:33.856Z,9.07
2018-01-29T09:59:44.126Z,9.04
2018-01-29T10:00:54.361Z,9.11
2018-01-29T10:02:04.530Z,9.12
2018-01-29T10:03:14.785Z,9.12
2018-01-29T10:04:25.061Z,9.12
2018-01-29T10:05:35.235Z,9.11
2018-01-29T10:06:45.364Z,9.08
2018-01-29T10:07:55.526Z,9.15
2018-01-29T10:09:05.670Z,9.09
2018-01-29T10:10:15.838Z,9.11
2018-01-29T10:11:25.986Z,9.15
2018-01-29T10:12:36.156Z,9.12
2018-01-29T10:13:46.311Z,9.09
2018-01-29T10:14:56.509Z,9.11
2018-01-29T10:16:06.643Z,9.15
2018-01-29T10:17:16.763Z,9.19
2018-01-29T10:18:26.928Z,9.23
2018-01-29T10:19:37.086Z,9.22
2018-01-29T10:20:47.233Z,9.23
2018-01-29T10:21:57.366Z,9.22
2018-01-29T10:23:07.630Z,9.22
2018-01-29T10:24:17.832Z,9.29
2018-01-29T10:25:28.118Z,9.27
2018-01-29T10:26:38.317Z,9.34
2018-01-29T10:27:48.512Z,9.27
2018-01-29T10:28:58.682Z,9.29
2018-01-29T10:30:08.972Z,9.27
2018-01-29T10:31:19.128Z,9.34
2018-01-29T10:32:29.298Z,9.35
2018-01-29T10:33:39.464Z,9.4
2018-01-29T10:34:49.392Z,9.41
2018-01-29T10:35:59.747Z,9.44
2018-01-29T10:37:09.867Z,9.37
2018-01-29T10:38:20.102Z,9.45
2018-01-29T10:39:30.289Z,9.47
2018-01-29T10:40:41.408Z,9.38
2018-01-29T10:41:51.298Z,9.55
2018-01-29T10:43:01.435Z,9.56
2018-01-29T10:44:11.624Z,9.44
2018-01-29T10:45:21.852Z,9.4
2018-01-29T10:46:31.985Z,9.42
2018-01-29T10:47:42.016Z,9.4
2018-01-29T10:48:52.170Z,9.4
2018-01-29T10:50:02.312Z,9.4
2018-01-29T10:51:12.514Z,9.44
2018-01-29T10:52:22.684Z,9.42
2018-01-29T10:53:32.855Z,9.4
2018-01-29T10:54:43.048Z,9.4
2018-01-29T10:55:53.326Z,9.3
2018-01-29T10:57:03.608Z,9.41
2018-01-29T10:58:13.889Z,9.38
2018-01-29T10:59:24.047Z,9.38
2018-01-29T11:00:34.279Z,9.44
2018-01-29T11:01:44.460Z,9.38
2018-01-29T11:02:54.646Z,9.3
2018-01-29T11:04:04.533Z,9.34
2018-01-29T11:05:14.683Z,9.33
2018-01-29T11:06:25.008Z,9.34
2018-01-29T11:07:35.194Z,9.3
2018-01-29T11:08:44.941Z,9.34
2018-01-29T11:09:55.101Z,9.37
2018-01-29T11:11:05.412Z,9.34
2018-01-29T11:12:15.552Z,9.38
2018-01-29T11:13:25.738Z,9.3
2018-01-29T11:14:35.912Z,9.27
2018-01-29T11:15:46.131Z,9.29
2018-01-29T11:16:56.337Z,9.25
2018-01-29T11:18:06.574Z,9.33
2018-01-29T11:19:16.779Z,9.3
2018-01-29T11:20:26.927Z,9.34
2018-01-29T11:21:37.114Z,9.25
2018-01-29T11:22:47.263Z,9.33
2018-01-29T11:23:57.431Z,9.29
2018-01-29T11:25:07.571Z,9.26
2018-01-29T11:26:17.324Z,9.33
2018-01-29T11:27:27.527Z,9.26
2018-01-29T11:28:37.708Z,9.29
2018-01-29T11:29:47.886Z,9.27
2018-01-29T11:30:58.087Z,9.34
2018-01-29T11:32:08.335Z,9.26
2018-01-29T11:33:18.508Z,9.27
2018-01-29T11:34:28.699Z,9.22
2018-01-29T11:35:39.159Z,9.23
2018-01-29T11:36:49.340Z,9.23
2018-01-29T11:37:59.515Z,9.27
2018-01-29T11:39:09.673Z,9.3
2018-01-29T11:40:19.869Z,9.27
2018-01-29T11:41:29.805Z,9.27
2018-01-29T11:42:39.963Z,9.29
2018-01-29T11:43:50.094Z,9.29
2018-01-29T11:45:00.321Z,9.26
2018-01-29T11:46:10.589Z,9.29
2018-01-29T11:47:20.859Z,9.26
2018-01-29T11:48:31.014Z,9.29
2018-01-29T11:49:41.250Z,9.23
2018-01-29T11:50:51.451Z,9.29
2018-01-29T11:52:01.574Z,9.22
2018-01-29T11:53:11.732Z,9.27
2018-01-29T11:54:22.161Z,9.27
2018-01-29T11:55:32.323Z,9.33
2018-01-29T11:56:42.478Z,9.34
2018-01-29T11:57:52.681Z,9.23
2018-01-29T11:59:02.897Z,9.25
2018-01-29T12:00:13.133Z,9.27
2018-01-29T12:01:23.289Z,9.26
2018-01-29T12:02:33.460Z,9.22
2018-01-29T12:03:43.632Z,9.26
2018-01-29T12:04:53.760Z,9.3
2018-01-29T12:06:03.894Z,9.34
2018-01-29T12:07:14.055Z,9.27
2018-01-29T12:08:24.224Z,9.22
2018-01-29T12:09:35.336Z,9.23
2018-01-29T12:10:45.576Z,9.3
2018-01-29T12:11:55.767Z,9.3
2018-01-29T12:13:05.886Z,9.27
2018-01-29T12:14:16.037Z,9.29
2018-01-29T12:15:26.243Z,9.29
2018-01-29T12:16:36.353Z,9.27
2018-01-29T12:17:47.468Z,9.3
2018-01-29T12:18:57.637Z,9.3
2018-01-29T12:20:07.898Z,9.23
2018-01-29T12:21:18.106Z,9.3
2018-01-29T12:22:28.305Z,9.35
2018-01-29T12:23:38.536Z,9.34
2018-01-29T12:24:48.705Z,9.3
2018-01-29T12:25:58.952Z,9.37
2018-01-29T12:27:09.154Z,9.3
2018-01-29T12:28:19.421Z,9.29
2018-01-29T12:29:29.560Z,9.26
2018-01-29T12:30:39.478Z,9.25
2018-01-29T12:31:49.697Z,9.23
2018-01-29T12:32:59.954Z,9.27
2018-01-29T12:34:10.114Z,9.22
2018-01-29T12:35:20.002Z,9.23
2018-01-29T12:36:30.145Z,9.25
2018-01-29T12:37:40.309Z,9.2
2018-01-29T12:38:50.464Z,9.26
2018-01-29T12:40:00.751Z,9.25
2018-01-29T12:41:10.923Z,9.16
2018-01-29T12:42:21.156Z,9.19
2018-01-29T12:43:31.329Z,9.19
2018-01-29T12:44:41.443Z,9.16
2018-01-29T12:45:51.631Z,9.11
2018-01-29T12:47:01.800Z,9.16
2018-01-29T12:48:11.932Z,9.16
2018-01-29T12:49:22.072Z,9.17
2018-01-29T12:50:32.237Z,9.22
2018-01-29T12:51:42.425Z,9.16
2018-01-29T12:52:52.327Z,9.19
2018-01-29T12:54:02.469Z,9.23
2018-01-29T12:55:12.599Z,9.17
2018-01-29T12:56:22.861Z,9.23
2018-01-29T12:57:33.006Z,9.25
2018-01-29T12:58:43.272Z,9.19
2018-01-29T12:59:53.490Z,9.17
2018-01-29T13:01:03.630Z,9.09
2018-01-29T13:02:13.830Z,9.07
2018-01-29T13:03:24.052Z,9.16
2018-01-29T13:04:34.194Z,9.23
2018-01-29T13:05:44.376Z,9.25
2018-01-29T13:06:54.546Z,9.26
2018-01-29T13:08:04.687Z,9.25
2018-01-29T13:09:14.835Z,9.26
2018-01-29T13:10:24.976Z,9.33
2018-01-29T13:11:35.162Z,9.3
2018-01-29T13:12:45.421Z,9.29
2018-01-29T13:13:56.592Z,9.38
2018-01-29T13:15:06.775Z,9.47
2018-01-29T13:16:17.080Z,9.52
2018-01-29T13:17:27.333Z,9.6
2018-01-29T13:18:37.505Z,9.74
2018-01-29T13:19:47.842Z,9.73
2018-01-29T13:20:58.129Z,9.8
2018-01-29T13:22:08.300Z,9.83
2018-01-29T13:23:18.593Z,9.85
2018-01-29T13:24:28.809Z,9.91
2018-01-29T13:25:38.943Z,9.85
2018-01-29T13:26:48.839Z,9.81
2018-01-29T13:27:58.998Z,9.66
2018-01-29T13:29:08.952Z,9.78
2018-01-29T13:30:18.999Z,9.71
2018-01-29T13:31:29.111Z,9.75
2018-01-29T13:32:39.228Z,9.78
2018-01-29T13:33:49.450Z,9.75
2018-01-29T13:34:59.883Z,9.8
2018-01-29T13:36:10.038Z,9.81
2018-01-29T13:37:20.187Z,9.83
2018-01-29T13:38:30.118Z,9.81
2018-01-29T13:39:40.268Z,9.83
2018-01-29T13:40:50.394Z,9.81
2018-01-29T13:42:01.561Z,9.89
2018-01-29T13:43:11.709Z,9.84
2018-01-29T13:44:21.596Z,9.91
2018-01-29T13:45:31.725Z,9.92
2018-01-29T13:46:41.908Z,9.89
2018-01-29T13:47:52.201Z,9.85
2018-01-29T13:49:02.324Z,9.85
2018-01-29T13:50:12.579Z,9.78
2018-01-29T13:51:22.758Z,9.84
2018-01-29T13:52:33.053Z,9.78
2018-01-29T13:53:43.207Z,9.84
2018-01-29T13:54:53.341Z,9.85
2018-01-29T13:56:03.483Z,9.92
2018-01-29T13:57:13.610Z,9.85
2018-01-29T13:58:23.744Z,9.83
2018-01-29T13:59:33.871Z,9.92
2018-01-29T14:00:43.778Z,9.85
2018-01-29T14:01:53.913Z,9.85
2018-01-29T14:03:05.118Z,9.77
2018-01-29T14:04:15.305Z,9.75
2018-01-29T14:05:25.444Z,9.75
2018-01-29T14:06:35.693Z,9.78
2018-01-29T14:07:45.956Z,9.78
2018-01-29T14:08:56.136Z,9.75
2018-01-29T14:10:06.320Z,9.74
2018-01-29T14:11:16.538Z,9.66
2018-01-29T14:12:26.698Z,9.73
2018-01-29T14:13:37.079Z,9.59
2018-01-29T14:14:46.965Z,9.6
2018-01-29T14:15:57.127Z,9.59
2018-01-29T14:17:07.268Z,9.6
2018-01-29T14:18:17.425Z,9.56
2018-01-29T14:19:27.567Z,9.62
2018-01-29T14:20:37.705Z,9.6
2018-01-29T14:21:47.688Z,9.56
2018-01-29T14:22:57.847Z,9.56
2018-01-29T14:24:07.996Z,9.5
2018-01-29T14:25:18.281Z,9.4
2018-01-29T14:26:28.492Z,9.4
2018-01-29T14:27:38.739Z,9.47
2018-01-29T14:28:48.886Z,9.44
2018-01-29T14:29:59.089Z,9.4
2018-01-29T14:31:09.285Z,9.4
2018-01-29T14:32:19.443Z,9.41
2018-01-29T14:33:29.601Z,9.4
2018-01-29T14:34:39.756Z,9.44
2018-01-29T14:35:49.941Z,9.27
2018-01-29T14:37:00.089Z,9.35
2018-01-29T14:38:09.903Z,9.41
2018-01-29T14:39:20.068Z,9.34
2018-01-29T14:40:30.230Z,9.35
2018-01-29T14:41:40.370Z,9.33
2018-01-29T14:42:50.587Z,9.35
2018-01-29T14:44:00.832Z,9.33
2018-01-29T14:45:11.030Z,9.26
2018-01-29T14:46:21.269Z,9.29
2018-01-29T14:47:31.155Z,9.26
2018-01-29T14:48:41.344Z,9.26
2018-01-29T14:49:51.505Z,9.27
2018-01-29T14:51:01.671Z,9.22
2018-01-29T14:52:11.801Z,9.19
2018-01-29T14:53:21.935Z,9.26
2018-01-29T14:54:32.046Z,9.23
2018-01-29T14:55:42.195Z,9.25
2018-01-29T14:56:52.492Z,9.22
2018-01-29T14:58:02.492Z,9.22
2018-01-29T14:59:12.788Z,9.22
2018-01-29T15:00:23.146Z,9.17
2018-01-29T15:01:33.131Z,9.17
2018-01-29T15:02:43.398Z,9.17
2018-01-29T15:03:53.601Z,9.22
2018-01-29T15:05:04.926Z,9.29
2018-01-29T15:06:15.149Z,9.26
2018-01-29T15:07:25.396Z,9.22
2018-01-29T15:08:35.578Z,9.25
2018-01-29T15:09:45.744Z,9.23
2018-01-29T15:10:55.994Z,9.22
2018-01-29T15:12:06.239Z,9.15
2018-01-29T15:13:16.408Z,9.09
2018-01-29T15:14:26.692Z,9.15
2018-01-29T15:15:36.945Z,9.16
2018-01-29T15:16:47.092Z,9.11
2018-01-29T15:17:57.247Z,9.11
2018-01-29T15:19:07.504Z,9.09
2018-01-29T15:20:17.853Z,9.05
2018-01-29T15:21:28.094Z,9.11
2018-01-29T15:22:38.298Z,9.15
2018-01-29T15:23:48.415Z,9.08
2018-01-29T15:24:58.610Z,9.05
2018-01-29T15:26:08.839Z,9.02
2018-01-29T15:27:18.976Z,9.04
2018-01-29T15:28:28.911Z,9.02
2018-01-29T15:29:39.101Z,9.01
2018-01-29T15:30:49.278Z,9.05
2018-01-29T15:31:59.430Z,8.93
2018-01-29T15:33:09.604Z,9.01
2018-01-29T15:34:19.752Z,8.97
2018-01-29T15:35:29.901Z,9
2018-01-29T15:36:40.086Z,8.9
2018-01-29T15:37:50.296Z,8.98
2018-01-29T15:39:00.470Z,8.97
2018-01-29T15:40:10.611Z,8.93